Terminal Aerodrome Forecast
Issued by NWS Quad Cities IA IL

Home | Current Version | Previous Version | Text Only | Print | Product List | Glossary On
Versions: 1 2 3 4 5 6 7 8 9 10 11 12 13 14 15 16 17 18
000
FTUS43 KDVN 181500 AAA
TAFMLI
TAF AMD
KMLI 181530Z 1816/1912 32010KT P6SM SCT015 OVC025
      TEMPO 1815/1817 5SM -RA BR BKN015
     FM182000 35007KT P6SM SCT030
     FM190100 VRB03KT P6SM SKC=

USA.gov is the U.S. government's official web portal to all federal, state and local government web resources and services.